createdAt,value
2023-03-16T00:02:05.456Z,91.98
2023-03-16T00:04:32.823Z,89.41
2023-03-16T00:06:59.406Z,89.06
2023-03-16T00:09:26.025Z,89.56
2023-03-16T00:11:53.018Z,91.05
2023-03-16T00:14:24.709Z,89.03
2023-03-16T00:16:51.355Z,88.15
2023-03-16T00:19:22.925Z,88.70
2023-03-16T00:21:53.128Z,86.54
2023-03-16T00:24:20.460Z,85.57
2023-03-16T00:26:47.881Z,99.49
2023-03-16T00:29:16.098Z,90.20
2023-03-16T00:31:45.874Z,81.67
2023-03-16T00:34:12.753Z,96.73
2023-03-16T00:36:42.382Z,81.69
2023-03-16T00:39:09.031Z,84.96
2023-03-16T00:41:43.960Z,81.70
2023-03-16T00:44:13.375Z,84.89
2023-03-16T00:46:39.974Z,82.91
2023-03-16T00:49:06.565Z,86.70
2023-03-16T00:51:33.228Z,83.72
2023-03-16T00:54:01.520Z,84.71
2023-03-16T00:56:38.918Z,85.16
2023-03-16T00:59:06.418Z,85.80
2023-03-16T01:01:33.054Z,89.76
2023-03-16T01:03:59.810Z,86.03
2023-03-16T01:06:35.220Z,86.55
2023-03-16T01:09:01.812Z,88.30
2023-03-16T01:11:32.754Z,88.75
2023-03-16T01:14:00.352Z,87.80
2023-03-16T01:16:27.123Z,87.67
2023-03-16T01:18:55.560Z,89.77
2023-03-16T01:21:25.363Z,88.19
2023-03-16T01:23:51.907Z,88.94
2023-03-16T01:26:20.964Z,90.15
2023-03-16T01:28:47.550Z,86.22
2023-03-16T01:31:15.273Z,87.48
2023-03-16T01:33:43.485Z,88.56
2023-03-16T01:36:13.015Z,91.36
2023-03-16T01:38:40.520Z,88.68
2023-03-16T01:41:08.342Z,89.00
2023-03-16T01:43:40.021Z,89.70
2023-03-16T01:46:40.976Z,89.83
2023-03-16T01:49:36.620Z,91.19
2023-03-16T01:52:08.775Z,91.38
2023-03-16T01:54:40.780Z,92.09
2023-03-16T01:57:39.559Z,92.82
2023-03-16T02:00:15.302Z,90.13
2023-03-16T02:02:47.681Z,91.00
2023-03-16T02:05:19.668Z,90.28
2023-03-16T02:07:54.803Z,90.08
2023-03-16T02:10:22.389Z,90.57
2023-03-16T02:12:48.954Z,91.08
2023-03-16T02:15:15.837Z,90.27
2023-03-16T02:17:44.906Z,89.41
2023-03-16T02:20:14.130Z,90.39
2023-03-16T02:23:08.388Z,90.62
2023-03-16T02:26:25.552Z,90.49
2023-03-16T02:29:14.258Z,89.88
2023-03-16T02:31:41.305Z,90.67
2023-03-16T02:34:16.549Z,89.34
2023-03-16T02:36:48.292Z,89.17
2023-03-16T02:39:14.886Z,89.78
2023-03-16T02:41:48.264Z,88.87
2023-03-16T02:44:22.686Z,90.68
2023-03-16T02:46:50.218Z,89.30
2023-03-16T02:49:32.729Z,89.72
2023-03-16T02:52:01.510Z,91.09
2023-03-16T02:54:33.936Z,93.46
2023-03-16T02:57:12.950Z,91.27
2023-03-16T02:59:39.559Z,90.72
2023-03-16T03:02:10.879Z,91.63
2023-03-16T03:04:37.900Z,92.36
2023-03-16T03:07:04.554Z,92.62
2023-03-16T03:09:32.558Z,92.21
2023-03-16T03:11:59.966Z,93.01
2023-03-16T03:14:26.578Z,93.44
2023-03-16T03:17:01.542Z,90.83
2023-03-16T03:19:28.078Z,90.38
2023-03-16T03:21:54.626Z,88.94
2023-03-16T03:24:21.215Z,87.86
2023-03-16T03:26:47.820Z,87.39
2023-03-16T03:29:18.750Z,86.83
2023-03-16T03:34:25.682Z,86.36
2023-03-16T03:36:58.495Z,86.08
2023-03-16T03:39:31.657Z,86.32
2023-03-16T03:41:58.246Z,85.90
2023-03-16T03:44:27.312Z,85.62
2023-03-16T03:47:01.483Z,85.71
2023-03-16T03:49:31.809Z,86.09
2023-03-16T03:52:01.564Z,87.13
2023-03-16T03:54:28.183Z,87.29
2023-03-16T03:56:57.378Z,86.96
2023-03-16T03:59:34.484Z,86.90
2023-03-16T04:02:03.489Z,86.64
2023-03-16T04:04:30.209Z,85.78
2023-03-16T04:06:56.764Z,85.81
2023-03-16T04:09:32.487Z,87.17
2023-03-16T04:12:08.338Z,87.38
2023-03-16T04:14:38.192Z,88.40
2023-03-16T04:17:05.770Z,86.59
2023-03-16T04:19:38.155Z,86.10
2023-03-16T04:22:04.992Z,85.24
2023-03-16T04:24:32.840Z,87.58
2023-03-16T04:27:05.290Z,87.50
2023-03-16T04:29:34.494Z,87.19
2023-03-16T04:32:01.148Z,87.75
2023-03-16T04:34:29.732Z,87.68
2023-03-16T04:36:57.095Z,88.09
2023-03-16T04:39:29.842Z,88.39
2023-03-16T04:41:56.425Z,90.97
2023-03-16T04:44:23.125Z,89.79
2023-03-16T04:46:49.822Z,91.38
2023-03-16T04:49:18.147Z,90.90
2023-03-16T04:52:01.679Z,90.40
2023-03-16T04:54:28.452Z,92.99
2023-03-16T04:57:00.812Z,90.85
2023-03-16T04:59:30.639Z,91.00
2023-03-16T05:02:03.550Z,90.62
2023-03-16T05:04:31.238Z,91.46
2023-03-16T05:07:00.534Z,92.72
2023-03-16T05:09:27.212Z,92.39
2023-03-16T05:12:01.470Z,91.86
2023-03-16T05:14:28.035Z,92.29
2023-03-16T05:16:54.821Z,92.41
2023-03-16T05:19:21.424Z,91.91
2023-03-16T05:21:54.601Z,91.89
2023-03-16T05:24:24.668Z,92.49
2023-03-16T05:26:53.842Z,91.89
2023-03-16T05:29:21.675Z,91.93
2023-03-16T05:31:48.241Z,92.44
2023-03-16T05:34:25.353Z,92.30
2023-03-16T05:36:57.940Z,93.82
2023-03-16T05:39:24.579Z,93.64
2023-03-16T05:42:12.597Z,93.18
2023-03-16T05:44:39.441Z,94.28
2023-03-16T05:47:32.526Z,94.26
2023-03-16T05:50:02.247Z,93.91
2023-03-16T05:52:36.870Z,94.19
2023-03-16T05:55:03.800Z,93.92
2023-03-16T05:57:30.404Z,93.94
2023-03-16T05:59:57.294Z,94.09
2023-03-16T06:02:25.724Z,93.22
2023-03-16T06:04:58.224Z,92.96
2023-03-16T06:07:29.302Z,93.42
2023-03-16T06:10:00.704Z,92.86
2023-03-16T06:12:27.323Z,92.77
2023-03-16T06:14:54.019Z,92.58
2023-03-16T06:17:25.272Z,92.04
2023-03-16T06:19:59.787Z,92.09
2023-03-16T06:22:26.418Z,91.95
2023-03-16T06:24:53.131Z,92.20
2023-03-16T06:27:22.908Z,91.04
2023-03-16T06:29:52.375Z,91.26
2023-03-16T06:32:19.143Z,94.45
2023-03-16T06:34:53.203Z,94.14
2023-03-16T06:37:29.507Z,91.71
2023-03-16T06:40:04.434Z,93.62
2023-03-16T06:42:31.060Z,92.12
2023-03-16T06:45:08.322Z,91.96
2023-03-16T06:47:34.896Z,89.23
2023-03-16T06:50:04.980Z,87.32
2023-03-16T06:52:41.586Z,86.49
2023-03-16T06:55:08.739Z,86.54
2023-03-16T06:57:41.266Z,86.23
2023-03-16T07:00:13.933Z,85.37
2023-03-16T07:02:40.612Z,85.72
2023-03-16T07:05:08.513Z,85.78
2023-03-16T07:07:35.136Z,86.13
2023-03-16T07:10:04.581Z,85.22
2023-03-16T07:12:43.643Z,86.88
2023-03-16T07:15:12.048Z,83.36
2023-03-16T07:17:38.717Z,82.62
2023-03-16T07:20:11.699Z,83.77
2023-03-16T07:22:39.005Z,84.49
2023-03-16T07:25:07.520Z,83.96
2023-03-16T07:27:37.408Z,83.43
2023-03-16T07:30:11.205Z,83.77
2023-03-16T07:32:38.722Z,82.58
2023-03-16T07:35:05.869Z,81.65
2023-03-16T07:38:00.924Z,82.68
2023-03-16T07:40:27.852Z,81.85
2023-03-16T07:42:54.714Z,81.19
2023-03-16T07:45:46.823Z,81.04
2023-03-16T07:48:13.476Z,79.96
2023-03-16T07:50:40.074Z,81.12
2023-03-16T07:53:06.696Z,80.81
2023-03-16T07:55:34.152Z,81.62
2023-03-16T07:58:00.762Z,81.23
2023-03-16T08:00:27.797Z,82.11
2023-03-16T08:02:54.845Z,76.57
2023-03-16T08:05:21.458Z,73.73
2023-03-16T08:07:50.014Z,74.98
2023-03-16T08:10:17.112Z,72.71
2023-03-16T08:12:44.331Z,71.13
2023-03-16T08:15:12.058Z,73.53
2023-03-16T08:17:44.163Z,70.88
2023-03-16T08:20:19.209Z,68.05
2023-03-16T08:22:57.498Z,68.40
2023-03-16T08:25:33.800Z,67.84
2023-03-16T08:28:01.536Z,72.33
2023-03-16T08:30:33.796Z,68.24
2023-03-16T08:33:00.415Z,65.55
2023-03-16T08:35:31.569Z,64.84
2023-03-16T08:38:01.136Z,59.54
2023-03-16T08:40:28.142Z,61.20
2023-03-16T08:42:54.971Z,60.18
2023-03-16T08:45:24.167Z,67.73
2023-03-16T08:47:59.367Z,60.60
2023-03-16T08:50:30.012Z,63.54
2023-03-16T08:52:56.889Z,58.72
2023-03-16T08:55:27.066Z,63.59
2023-03-16T08:57:55.165Z,54.05
2023-03-16T09:00:32.007Z,54.63
2023-03-16T09:03:01.285Z,54.38
2023-03-16T09:05:27.892Z,55.19
2023-03-16T09:08:02.991Z,59.98
2023-03-16T09:10:30.742Z,49.26
2023-03-16T09:12:57.564Z,57.24
2023-03-16T09:15:24.169Z,56.50
2023-03-16T09:18:08.805Z,48.58
2023-03-16T09:20:55.323Z,50.66
2023-03-16T09:23:31.371Z,48.31
2023-03-16T09:25:59.784Z,47.87
2023-03-16T09:28:35.496Z,49.99
2023-03-16T09:31:07.804Z,49.57
2023-03-16T09:33:41.452Z,49.70
2023-03-16T09:36:14.158Z,53.18
2023-03-16T09:38:46.294Z,50.23
2023-03-16T09:41:43.838Z,48.82
2023-03-16T09:44:42.062Z,48.78
2023-03-16T09:47:25.205Z,49.33
2023-03-16T09:50:03.708Z,48.55
2023-03-16T09:53:06.421Z,47.41
2023-03-16T09:55:45.429Z,47.52
2023-03-16T09:58:25.349Z,48.36
2023-03-16T10:01:16.071Z,48.61
2023-03-16T10:04:02.550Z,48.58
2023-03-16T10:06:39.183Z,49.21
2023-03-16T10:09:27.137Z,46.07
2023-03-16T10:15:00.689Z,48.48
2023-03-16T10:18:07.419Z,49.57
2023-03-16T10:20:35.878Z,48.96
2023-03-16T10:23:21.598Z,47.51
2023-03-16T10:25:59.299Z,47.85
2023-03-16T10:28:36.605Z,45.66
2023-03-16T10:31:11.687Z,47.91
2023-03-16T10:33:38.626Z,47.99
2023-03-16T10:36:36.907Z,46.82
2023-03-16T10:39:24.891Z,48.77
2023-03-16T10:42:03.077Z,49.63
2023-03-16T10:44:33.163Z,49.75
2023-03-16T10:47:08.769Z,49.29
2023-03-16T10:49:42.801Z,48.67
2023-03-16T10:52:14.377Z,50.44
2023-03-16T10:54:48.730Z,49.85
2023-03-16T10:57:27.237Z,48.73
2023-03-16T11:00:05.737Z,48.78
2023-03-16T11:02:42.833Z,50.49
2023-03-16T11:05:23.317Z,51.58
2023-03-16T11:08:16.432Z,51.37
2023-03-16T11:10:56.112Z,52.24
2023-03-16T11:13:37.697Z,51.90
2023-03-16T11:16:36.652Z,49.82
2023-03-16T11:19:17.600Z,48.50
2023-03-16T11:22:07.999Z,50.72
2023-03-16T11:24:51.603Z,51.09
2023-03-16T11:27:50.946Z,49.90
2023-03-16T11:30:55.135Z,48.82
2023-03-16T11:33:27.288Z,48.29
2023-03-16T11:36:13.477Z,49.22
2023-03-16T11:39:27.335Z,51.44
2023-03-16T11:42:24.458Z,50.71
2023-03-16T11:45:09.669Z,50.00
2023-03-16T11:47:57.904Z,51.46
2023-03-16T11:50:43.071Z,51.76
2023-03-16T11:53:19.898Z,50.67
2023-03-16T11:56:12.630Z,50.19
2023-03-16T11:59:04.015Z,48.61
2023-03-16T12:02:29.320Z,46.48
2023-03-16T12:05:21.538Z,48.67
2023-03-16T12:08:30.115Z,49.86
2023-03-16T12:11:03.041Z,48.76
2023-03-16T12:13:41.594Z,48.85
2023-03-16T12:16:56.557Z,48.61
2023-03-16T12:19:51.570Z,50.75
2023-03-16T12:22:29.586Z,50.03
2023-03-16T12:24:56.852Z,50.47
2023-03-16T12:27:40.592Z,47.76
2023-03-16T12:30:42.649Z,48.58
2023-03-16T12:33:44.501Z,46.02
2023-03-16T12:36:16.971Z,45.67
2023-03-16T12:39:04.747Z,46.72
2023-03-16T12:41:40.687Z,47.02
2023-03-16T12:44:23.023Z,47.73
2023-03-16T12:47:56.548Z,46.86
2023-03-16T12:50:32.407Z,46.65
2023-03-16T12:52:59.085Z,46.12
2023-03-16T12:55:46.348Z,45.05
2023-03-16T12:58:13.203Z,43.74
2023-03-16T13:00:42.454Z,45.39
2023-03-16T13:03:22.614Z,46.49
2023-03-16T13:05:59.907Z,43.98
2023-03-16T13:08:41.322Z,43.59
2023-03-16T13:11:17.012Z,42.51
2023-03-16T13:14:06.665Z,42.72
2023-03-16T13:16:36.780Z,43.39
2023-03-16T13:19:32.839Z,45.95
2023-03-16T13:22:26.909Z,46.15
2023-03-16T13:25:26.770Z,45.31
2023-03-16T13:28:01.394Z,45.37
2023-03-16T13:30:46.206Z,43.93
2023-03-16T13:33:23.311Z,44.52
2023-03-16T13:35:56.915Z,43.30
2023-03-16T13:38:25.574Z,44.02
2023-03-16T13:40:54.160Z,44.89
2023-03-16T13:43:24.477Z,45.43
2023-03-16T13:45:54.019Z,44.94
2023-03-16T13:48:26.391Z,45.33
2023-03-16T13:50:57.642Z,46.35
2023-03-16T13:53:27.507Z,46.83
2023-03-16T13:55:55.849Z,46.21
2023-03-16T13:58:41.085Z,46.67
2023-03-16T14:01:26.486Z,45.87
2023-03-16T14:03:58.252Z,45.73
2023-03-16T14:06:33.120Z,45.29
2023-03-16T14:09:08.167Z,45.02
2023-03-16T14:11:37.369Z,44.45
2023-03-16T14:14:29.207Z,43.69
2023-03-16T14:17:02.170Z,43.80
2023-03-16T14:19:39.914Z,45.56
2023-03-16T14:22:06.526Z,45.18
2023-03-16T14:24:34.945Z,44.81
2023-03-16T14:27:21.330Z,45.45
2023-03-16T14:30:02.918Z,45.01
2023-03-16T14:32:36.747Z,44.82
2023-03-16T14:35:16.364Z,46.39
2023-03-16T14:37:46.584Z,44.77
2023-03-16T14:40:31.671Z,44.94
2023-03-16T14:43:09.533Z,44.65
2023-03-16T14:45:41.603Z,44.86
2023-03-16T14:48:24.884Z,45.40
2023-03-16T14:50:55.069Z,45.61
2023-03-16T14:53:32.164Z,45.57
2023-03-16T14:56:09.224Z,44.52
2023-03-16T14:58:37.851Z,45.53
2023-03-16T15:01:07.235Z,44.45
2023-03-16T15:03:36.149Z,45.49
2023-03-16T15:06:13.122Z,45.19
2023-03-16T15:08:53.468Z,45.27
2023-03-16T15:11:30.503Z,45.53
2023-03-16T15:14:03.586Z,46.10
2023-03-16T15:16:31.138Z,46.57
2023-03-16T15:19:19.378Z,45.51
2023-03-16T15:21:46.092Z,45.45
2023-03-16T15:24:12.650Z,45.72
2023-03-16T15:26:41.045Z,46.20
2023-03-16T15:29:14.008Z,47.39
2023-03-16T15:31:50.006Z,46.28
2023-03-16T15:34:17.467Z,47.43
2023-03-16T15:36:44.157Z,45.25
2023-03-16T15:39:26.254Z,45.02
2023-03-16T15:41:55.931Z,46.12
2023-03-16T15:44:29.077Z,46.79
2023-03-16T15:47:00.915Z,45.61
2023-03-16T15:49:30.178Z,45.22
2023-03-16T15:54:40.484Z,46.10
2023-03-16T15:57:19.804Z,45.52
2023-03-16T15:59:53.330Z,46.06
2023-03-16T16:02:38.076Z,45.39
2023-03-16T16:05:08.010Z,45.23
2023-03-16T16:07:49.489Z,45.40
2023-03-16T16:10:25.926Z,46.21
2023-03-16T16:12:55.595Z,45.88
2023-03-16T16:15:24.208Z,46.82
2023-03-16T16:18:20.846Z,45.86
2023-03-16T16:20:55.042Z,45.72
2023-03-16T16:23:26.963Z,46.44
2023-03-16T16:25:56.466Z,46.28
2023-03-16T16:28:30.375Z,45.61
2023-03-16T16:31:08.491Z,46.62
2023-03-16T16:33:35.477Z,47.13
2023-03-16T16:36:05.405Z,46.84
2023-03-16T16:38:42.232Z,46.37
2023-03-16T16:41:09.614Z,46.33
2023-03-16T16:43:38.933Z,46.42
2023-03-16T16:46:12.786Z,46.46
2023-03-16T16:48:43.996Z,46.87
2023-03-16T16:51:20.543Z,46.94
2023-03-16T16:53:48.013Z,47.42
2023-03-16T16:56:23.475Z,47.56
2023-03-16T16:58:53.588Z,48.50
2023-03-16T17:01:32.242Z,49.54
2023-03-16T17:04:00.186Z,49.54
2023-03-16T17:06:29.463Z,50.03
2023-03-16T17:09:01.802Z,49.75
2023-03-16T17:11:35.856Z,50.30
2023-03-16T17:14:14.652Z,50.23
2023-03-16T17:16:44.559Z,50.53
2023-03-16T17:19:19.502Z,51.28
2023-03-16T17:21:46.112Z,51.47
2023-03-16T17:24:16.084Z,51.48
2023-03-16T17:26:58.748Z,51.33
2023-03-16T17:29:33.965Z,52.28
2023-03-16T17:32:16.415Z,52.24
2023-03-16T17:34:49.899Z,53.31
2023-03-16T17:37:23.949Z,53.38
2023-03-16T17:39:57.851Z,54.09
2023-03-16T17:42:24.751Z,54.44
2023-03-16T17:44:53.145Z,54.06
2023-03-16T17:47:23.517Z,55.23
2023-03-16T17:49:53.996Z,54.71
2023-03-16T17:52:27.882Z,55.44
2023-03-16T17:54:54.807Z,55.13
2023-03-16T17:57:48.446Z,55.80
2023-03-16T18:00:34.012Z,55.97
2023-03-16T18:03:30.845Z,56.32
2023-03-16T18:06:00.598Z,56.45
2023-03-16T18:08:36.346Z,56.12
2023-03-16T18:11:16.345Z,57.45
2023-03-16T18:13:44.889Z,57.49
2023-03-16T18:16:24.005Z,57.40
2023-03-16T18:18:59.604Z,57.50
2023-03-16T18:24:23.601Z,58.09
2023-03-16T18:26:52.116Z,58.69
2023-03-16T18:29:25.419Z,58.98
2023-03-16T18:32:06.315Z,59.02
2023-03-16T18:34:48.922Z,59.79
2023-03-16T18:37:27.081Z,60.49
2023-03-16T18:40:04.814Z,60.15
2023-03-16T18:42:52.274Z,60.55
2023-03-16T18:45:20.607Z,60.95
2023-03-16T18:47:51.050Z,61.03
2023-03-16T18:50:39.198Z,61.59
2023-03-16T18:53:10.147Z,61.22
2023-03-16T18:55:36.761Z,61.39
2023-03-16T18:58:17.872Z,61.61
2023-03-16T19:01:08.188Z,62.23
2023-03-16T19:03:51.283Z,61.97
2023-03-16T19:06:35.931Z,62.77
2023-03-16T19:09:25.184Z,62.85
2023-03-16T19:12:02.427Z,64.38
2023-03-16T19:14:38.951Z,63.20
2023-03-16T19:17:06.028Z,63.45
2023-03-16T19:19:34.962Z,64.26
2023-03-16T19:22:12.007Z,64.25
2023-03-16T19:24:47.392Z,64.43
2023-03-16T19:27:28.009Z,64.91
2023-03-16T19:29:55.961Z,64.73
2023-03-16T19:32:37.756Z,65.08
2023-03-16T19:35:19.308Z,65.09
2023-03-16T19:38:05.065Z,65.30
2023-03-16T19:40:35.394Z,64.95
2023-03-16T19:43:05.267Z,65.40
2023-03-16T19:45:36.139Z,66.00
2023-03-16T19:48:34.410Z,65.53
2023-03-16T19:51:13.946Z,65.88
2023-03-16T19:54:01.209Z,65.87
2023-03-16T19:56:28.010Z,66.22
2023-03-16T19:59:03.946Z,66.66
2023-03-16T20:01:33.804Z,71.23
2023-03-16T20:04:00.538Z,65.78
2023-03-16T20:06:41.465Z,65.89
2023-03-16T20:09:08.730Z,66.19
2023-03-16T20:11:38.194Z,66.52
2023-03-16T20:14:30.329Z,67.38
2023-03-16T20:17:07.855Z,66.98
2023-03-16T20:19:35.252Z,67.13
2023-03-16T20:22:08.808Z,67.25
2023-03-16T20:24:35.550Z,67.96
2023-03-16T20:27:02.335Z,67.86
2023-03-16T20:29:33.776Z,68.04
2023-03-16T20:32:01.445Z,68.34
2023-03-16T20:34:32.981Z,68.42
2023-03-16T20:37:02.941Z,68.69
2023-03-16T20:39:29.713Z,68.63
2023-03-16T20:42:14.160Z,68.84
2023-03-16T20:44:43.206Z,69.20
2023-03-16T20:47:38.260Z,69.41
2023-03-16T20:50:06.168Z,69.69
2023-03-16T20:52:50.197Z,69.89
2023-03-16T20:55:40.896Z,70.24
2023-03-16T20:58:34.505Z,69.75
2023-03-16T21:01:04.933Z,70.68
2023-03-16T21:03:34.765Z,70.82
2023-03-16T21:06:10.547Z,71.34
2023-03-16T21:08:45.414Z,71.27
2023-03-16T21:11:32.301Z,71.51
2023-03-16T21:14:09.093Z,72.37
2023-03-16T21:16:36.405Z,71.98
2023-03-16T21:19:20.947Z,72.04
2023-03-16T21:21:47.890Z,72.18
2023-03-16T21:24:14.860Z,72.75
2023-03-16T21:26:45.134Z,73.31
2023-03-16T21:29:22.130Z,73.13
2023-03-16T21:32:04.929Z,73.52
2023-03-16T21:34:35.653Z,73.25
2023-03-16T21:37:19.885Z,73.39
2023-03-16T21:39:53.145Z,73.75
2023-03-16T21:42:34.477Z,73.27
2023-03-16T21:45:05.598Z,74.04
2023-03-16T21:47:44.141Z,74.45
2023-03-16T21:50:25.542Z,75.01
2023-03-16T21:53:00.604Z,75.28
2023-03-16T21:55:37.203Z,75.15
2023-03-16T21:58:20.689Z,75.34
2023-03-16T22:00:55.656Z,75.61
2023-03-16T22:03:47.993Z,75.29
2023-03-16T22:06:19.938Z,75.45
2023-03-16T22:11:40.241Z,75.49
2023-03-16T22:14:10.116Z,76.08
2023-03-16T22:16:40.189Z,75.47
2023-03-16T22:19:16.289Z,77.27
2023-03-16T22:21:57.000Z,75.50
2023-03-16T22:24:30.461Z,75.71
2023-03-16T22:27:18.563Z,75.74
2023-03-16T22:29:58.673Z,76.14
2023-03-16T22:32:25.937Z,75.92
2023-03-16T22:34:54.908Z,76.03
2023-03-16T22:37:29.945Z,76.04
2023-03-16T22:40:07.994Z,74.44
2023-03-16T22:42:38.690Z,75.47
2023-03-16T22:45:50.324Z,76.38
2023-03-16T22:48:29.971Z,74.58
2023-03-16T22:51:09.409Z,75.46
2023-03-16T22:53:43.722Z,74.77
2023-03-16T22:56:15.163Z,74.65
2023-03-16T22:58:55.549Z,74.84
2023-03-16T23:01:33.042Z,74.72
2023-03-16T23:04:02.240Z,74.88
2023-03-16T23:06:42.917Z,74.91
2023-03-16T23:09:19.857Z,74.39
2023-03-16T23:11:48.912Z,75.78
2023-03-16T23:14:18.297Z,75.22
2023-03-16T23:16:56.122Z,74.21
2023-03-16T23:19:27.270Z,74.44
2023-03-16T23:21:57.125Z,75.38
2023-03-16T23:24:24.009Z,74.21
2023-03-16T23:27:21.595Z,75.22
2023-03-16T23:29:49.366Z,74.72
2023-03-16T23:32:16.278Z,73.97
2023-03-16T23:34:43.197Z,72.41
2023-03-16T23:37:18.997Z,71.84
2023-03-16T23:40:01.725Z,72.83
2023-03-16T23:42:29.218Z,73.36
2023-03-16T23:45:21.318Z,72.86
2023-03-16T23:47:56.971Z,72.16
2023-03-16T23:50:33.687Z,71.59
2023-03-16T23:53:06.128Z,71.28
2023-03-16T23:55:33.029Z,71.50
2023-03-16T23:58:00.455Z,71.48
